Terminal Aerodrome Forecast
Issued by NWS

Home | Current Version | Previous Version | Text Only | Print | Product List | Glossary Off
Versions: 1 2 3 4 5 6 7 8 9 10 11 12 13 14

000
FTUS45 KGGW 312320
TAFGDV
TAF
KGDV 312320Z 0100/0124 33020G29KT P6SM VCSH SCT025 BKN045
     FM010300 31009KT P6SM BKN050
     FM010600 30008KT P6SM SCT070
     FM011200 30007KT P6SM FEW150
      AMD LTD TO CLD VIS AND WIND=

USA.gov is the U.S. government's official web portal to all federal, state and local government web resources and services.